createdAt,value
2022-12-25T00:00:09.681Z,21.20
2022-12-25T00:02:42.747Z,28.87
2022-12-25T00:05:15.184Z,36.33
2022-12-25T00:07:44.943Z,19.93
2022-12-25T00:10:15.058Z,19.60
2022-12-25T00:12:44.851Z,19.80
2022-12-25T00:15:14.614Z,22.00
2022-12-25T00:17:44.358Z,21.90
2022-12-25T00:20:16.744Z,25.00
2022-12-25T00:22:46.473Z,22.93
2022-12-25T00:25:16.192Z,23.97
2022-12-25T00:27:45.940Z,24.53
2022-12-25T00:30:16.121Z,23.40
2022-12-25T00:32:45.842Z,23.53
2022-12-25T00:35:18.326Z,19.97
2022-12-25T00:37:48.042Z,21.60
2022-12-25T00:40:17.775Z,19.83
2022-12-25T00:42:47.518Z,21.93
2022-12-25T00:45:17.319Z,21.30
2022-12-25T00:47:47.148Z,20.33
2022-12-25T00:50:19.605Z,21.33
2022-12-25T00:52:49.345Z,24.57
2022-12-25T00:55:19.244Z,23.10
2022-12-25T00:57:49.034Z,25.20
2022-12-25T01:00:19.541Z,19.00
2022-12-25T01:02:49.319Z,20.10
2022-12-25T01:05:21.890Z,20.30
2022-12-25T01:07:51.623Z,17.50
2022-12-25T01:10:24.993Z,20.10
2022-12-25T01:12:55.159Z,20.50
2022-12-25T01:15:25.009Z,19.60
2022-12-25T01:17:54.758Z,19.73
2022-12-25T01:20:27.140Z,22.17
2022-12-25T01:22:57.191Z,21.67
2022-12-25T01:25:26.888Z,19.80
2022-12-25T01:27:56.605Z,21.00
2022-12-25T01:30:26.360Z,23.77
2022-12-25T01:32:56.102Z,25.13
2022-12-25T01:35:28.603Z,25.77
2022-12-25T01:37:58.393Z,27.37
2022-12-25T01:40:28.184Z,18.73
2022-12-25T01:42:57.915Z,30.97
2022-12-25T01:45:40.783Z,25.43
2022-12-25T01:48:16.270Z,25.50
2022-12-25T01:50:51.267Z,24.87
2022-12-25T01:53:21.102Z,20.03
2022-12-25T01:55:54.040Z,22.93
2022-12-25T01:58:24.565Z,23.10
2022-12-25T02:00:54.677Z,20.57
2022-12-25T02:03:25.447Z,25.90
2022-12-25T02:05:58.298Z,22.57
2022-12-25T02:08:28.374Z,23.97
2022-12-25T02:10:58.229Z,27.47
2022-12-25T02:13:28.045Z,21.43
2022-12-25T02:16:08.831Z,25.23
2022-12-25T02:18:47.533Z,24.93
2022-12-25T02:21:47.774Z,27.30
2022-12-25T02:24:48.477Z,19.57
2022-12-25T02:27:26.935Z,25.03
2022-12-25T02:30:05.024Z,23.63
2022-12-25T02:32:42.926Z,28.20
2022-12-25T02:35:15.666Z,22.27
2022-12-25T02:37:51.061Z,26.37
2022-12-25T02:40:22.580Z,24.23
2022-12-25T02:43:09.457Z,30.73
2022-12-25T02:45:59.347Z,25.17
2022-12-25T02:48:46.474Z,28.57
2022-12-25T02:51:31.466Z,24.87
2022-12-25T02:54:16.700Z,24.30
2022-12-25T02:57:02.107Z,24.20
2022-12-25T02:59:51.242Z,21.97
2022-12-25T03:02:39.188Z,27.00
2022-12-25T03:05:25.874Z,23.07
2022-12-25T03:07:55.973Z,24.03
2022-12-25T03:10:38.959Z,29.70
2022-12-25T03:13:15.251Z,29.33
2022-12-25T03:15:58.543Z,25.87
2022-12-25T03:18:34.157Z,29.17
2022-12-25T03:21:16.826Z,30.13
2022-12-25T03:24:09.914Z,27.23
2022-12-25T03:26:52.335Z,26.03
2022-12-25T03:29:34.334Z,22.83
2022-12-25T03:32:13.159Z,27.43
2022-12-25T03:35:08.455Z,26.03
2022-12-25T03:38:03.491Z,27.67
2022-12-25T03:40:53.900Z,31.90
2022-12-25T03:43:48.723Z,25.90
2022-12-25T03:46:32.933Z,27.13
2022-12-25T03:49:22.708Z,23.30
2022-12-25T03:52:09.483Z,28.33
2022-12-25T03:54:54.084Z,26.60
2022-12-25T03:57:36.235Z,29.43
2022-12-25T04:00:19.103Z,27.00
2022-12-25T04:03:01.274Z,31.40
2022-12-25T04:05:43.422Z,30.47
2022-12-25T04:08:28.162Z,35.47
2022-12-25T04:11:10.254Z,30.93
2022-12-25T04:13:52.386Z,31.30
2022-12-25T04:16:34.489Z,27.73
2022-12-25T04:19:16.687Z,25.77
2022-12-25T04:21:58.789Z,27.27
2022-12-25T04:24:43.537Z,27.83
2022-12-25T04:27:25.711Z,31.57
2022-12-25T04:30:07.827Z,30.80
2022-12-25T04:32:49.959Z,29.80
2022-12-25T04:35:32.080Z,28.37
2022-12-25T04:38:01.946Z,28.63
2022-12-25T04:40:34.289Z,28.63
2022-12-25T04:43:04.043Z,36.70
2022-12-25T04:45:33.798Z,30.70
2022-12-25T04:48:03.756Z,36.67
2022-12-25T04:50:33.494Z,29.53
2022-12-25T04:53:03.219Z,27.60
2022-12-25T04:55:35.556Z,27.43
2022-12-25T04:58:05.315Z,30.23
2022-12-25T05:00:35.015Z,32.23
2022-12-25T05:03:04.790Z,31.53
2022-12-25T05:05:34.635Z,27.73
2022-12-25T05:08:05.940Z,28.80
2022-12-25T05:10:38.238Z,30.00
2022-12-25T05:13:08.005Z,39.83
2022-12-25T05:15:37.772Z,29.17
2022-12-25T05:18:07.806Z,29.57
2022-12-25T05:20:40.181Z,36.43
2022-12-25T05:23:10.474Z,35.90
2022-12-25T05:25:44.419Z,31.60
2022-12-25T05:28:14.135Z,34.20
2022-12-25T05:30:44.096Z,44.03
2022-12-25T05:33:13.970Z,37.07
2022-12-25T05:35:43.951Z,31.43
2022-12-25T05:38:13.672Z,34.20
2022-12-25T05:40:46.022Z,29.67
2022-12-25T05:43:15.766Z,36.37
2022-12-25T05:45:45.491Z,37.23
2022-12-25T05:48:15.249Z,34.17
2022-12-25T05:50:45.270Z,32.00
2022-12-25T05:53:16.860Z,31.60
2022-12-25T05:55:49.246Z,30.10
2022-12-25T05:58:19.040Z,31.23
2022-12-25T06:00:48.744Z,38.27
2022-12-25T06:03:18.573Z,31.37
2022-12-25T06:05:48.330Z,32.53
2022-12-25T06:08:18.051Z,31.30
2022-12-25T06:10:50.773Z,33.77
2022-12-25T06:13:20.495Z,35.60
2022-12-25T06:15:50.333Z,30.47
2022-12-25T06:18:20.035Z,26.97
2022-12-25T06:20:49.841Z,33.00
2022-12-25T06:23:19.638Z,27.20
2022-12-25T06:25:52.977Z,34.07
2022-12-25T06:28:22.697Z,32.63
2022-12-25T06:30:52.511Z,34.83
2022-12-25T06:33:22.247Z,34.70
2022-12-25T06:35:51.962Z,37.27
2022-12-25T06:38:21.761Z,30.73
2022-12-25T06:40:54.122Z,32.47
2022-12-25T06:43:23.875Z,39.60
2022-12-25T06:45:53.724Z,33.53
2022-12-25T06:48:23.512Z,27.13
2022-12-25T06:50:53.227Z,29.70
2022-12-25T06:53:24.183Z,34.73
2022-12-25T06:55:56.530Z,27.67
2022-12-25T06:58:26.268Z,43.23
2022-12-25T07:00:56.040Z,33.90
2022-12-25T07:03:25.890Z,32.90
2022-12-25T07:05:55.627Z,31.17
2022-12-25T07:08:25.342Z,27.60
2022-12-25T07:10:58.282Z,27.30
2022-12-25T07:13:27.991Z,29.47
2022-12-25T07:15:58.929Z,36.80
2022-12-25T07:18:29.423Z,30.80
2022-12-25T07:20:59.622Z,30.63
2022-12-25T07:23:29.823Z,30.00
2022-12-25T07:26:03.731Z,27.73
2022-12-25T07:28:34.465Z,27.40
2022-12-25T07:31:05.788Z,27.93
2022-12-25T07:33:36.223Z,32.80
2022-12-25T07:36:07.797Z,32.80
2022-12-25T07:38:42.543Z,36.43
2022-12-25T07:41:15.873Z,34.33
2022-12-25T07:43:45.731Z,29.83
2022-12-25T07:46:15.643Z,31.40
2022-12-25T07:48:45.505Z,30.20
2022-12-25T07:51:17.093Z,34.00
2022-12-25T07:53:46.915Z,27.43
2022-12-25T07:56:22.367Z,35.67
2022-12-25T07:58:52.466Z,29.40
2022-12-25T08:01:24.407Z,27.27
2022-12-25T08:03:55.888Z,34.60
2022-12-25T08:06:30.035Z,29.13
2022-12-25T08:09:00.573Z,24.43
2022-12-25T08:11:33.006Z,28.43
2022-12-25T08:14:02.728Z,33.57
2022-12-25T08:16:32.521Z,33.30
2022-12-25T08:19:02.426Z,30.07
2022-12-25T08:21:32.592Z,25.77
2022-12-25T08:24:03.286Z,23.73
2022-12-25T08:26:35.690Z,28.43
2022-12-25T08:29:05.451Z,20.47
2022-12-25T08:31:39.430Z,29.00
2022-12-25T08:34:12.917Z,26.40
2022-12-25T08:36:42.712Z,28.27
2022-12-25T08:39:12.530Z,25.70
2022-12-25T08:41:44.893Z,23.47
2022-12-25T08:44:15.446Z,21.30
2022-12-25T08:46:45.253Z,18.43
2022-12-25T08:49:15.094Z,21.90
2022-12-25T08:51:47.437Z,25.30
2022-12-25T08:54:17.416Z,24.30
2022-12-25T08:56:49.998Z,21.20
2022-12-25T08:59:19.822Z,22.53
2022-12-25T09:01:49.686Z,19.80
2022-12-25T09:04:19.553Z,18.40
2022-12-25T09:06:50.357Z,19.33
2022-12-25T09:09:20.143Z,25.63
2022-12-25T09:11:52.577Z,19.17
2022-12-25T09:14:22.312Z,19.40
2022-12-25T09:16:53.116Z,20.67
2022-12-25T09:19:23.025Z,21.67
2022-12-25T09:21:52.926Z,17.43
2022-12-25T09:24:22.948Z,17.80
2022-12-25T09:26:55.363Z,19.00
2022-12-25T09:29:25.197Z,20.33
2022-12-25T09:31:55.021Z,12.87
2022-12-25T09:34:24.845Z,14.67
2022-12-25T09:36:54.733Z,16.57
2022-12-25T09:39:24.866Z,13.83
2022-12-25T09:42:01.602Z,17.77
2022-12-25T09:44:33.777Z,13.67
2022-12-25T09:47:08.079Z,14.97
2022-12-25T09:49:43.079Z,17.67
2022-12-25T09:52:16.786Z,14.87
2022-12-25T09:54:54.638Z,13.33
2022-12-25T09:57:28.516Z,13.70
2022-12-25T09:59:59.449Z,13.17
2022-12-25T10:02:58.431Z,13.90
2022-12-25T10:05:47.436Z,13.80
2022-12-25T10:08:32.601Z,14.60
2022-12-25T10:11:13.163Z,12.73
2022-12-25T10:14:05.923Z,11.33
2022-12-25T10:16:46.204Z,11.63
2022-12-25T10:19:31.198Z,12.17
2022-12-25T10:22:04.991Z,13.13
2022-12-25T10:24:39.914Z,16.73
2022-12-25T10:27:17.679Z,13.50
2022-12-25T10:29:55.577Z,11.50
2022-12-25T10:32:25.815Z,11.07
2022-12-25T10:34:55.580Z,11.90
2022-12-25T10:37:25.324Z,14.77
2022-12-25T10:39:55.075Z,12.13
2022-12-25T10:42:38.850Z,10.80
2022-12-25T10:45:12.509Z,12.67
2022-12-25T10:47:44.568Z,15.07
2022-12-25T10:50:21.328Z,12.60
2022-12-25T10:52:59.068Z,13.53
2022-12-25T10:55:29.937Z,10.43
2022-12-25T10:58:02.143Z,12.17
2022-12-25T11:00:36.197Z,10.17
2022-12-25T11:03:06.160Z,8.93
2022-12-25T11:05:37.950Z,11.70
2022-12-25T11:08:23.847Z,9.50
2022-12-25T11:10:59.790Z,8.47
2022-12-25T11:13:32.369Z,9.87
2022-12-25T11:16:10.756Z,9.10
2022-12-25T11:18:49.808Z,10.10
2022-12-25T11:21:22.115Z,10.93
2022-12-25T11:23:53.730Z,11.93
2022-12-25T11:26:23.553Z,9.63
2022-12-25T11:28:55.137Z,8.63
2022-12-25T11:31:35.476Z,9.37
2022-12-25T11:34:09.563Z,9.40
2022-12-25T11:36:46.747Z,9.07
2022-12-25T11:39:27.421Z,9.20
2022-12-25T11:42:02.617Z,9.77
2022-12-25T11:44:41.813Z,10.20
2022-12-25T11:47:20.262Z,8.47
2022-12-25T11:50:00.144Z,9.03
2022-12-25T11:52:34.738Z,9.70
2022-12-25T11:55:10.355Z,11.77
2022-12-25T11:57:42.191Z,11.37
2022-12-25T12:00:17.633Z,9.23
2022-12-25T12:02:57.465Z,10.20
2022-12-25T12:05:36.767Z,10.63
2022-12-25T12:08:08.585Z,10.23
2022-12-25T12:10:50.477Z,10.60
2022-12-25T12:13:34.658Z,7.73
2022-12-25T12:16:06.118Z,9.27
2022-12-25T12:18:38.625Z,7.60
2022-12-25T12:21:12.749Z,11.37
2022-12-25T12:23:54.455Z,9.33
2022-12-25T12:26:26.859Z,12.83
2022-12-25T12:28:59.615Z,10.23
2022-12-25T12:31:41.327Z,10.13
2022-12-25T12:34:25.042Z,9.73
2022-12-25T12:36:59.203Z,9.77
2022-12-25T12:39:32.323Z,9.37
2022-12-25T12:42:02.280Z,8.60
2022-12-25T12:44:36.938Z,8.83
2022-12-25T12:47:06.772Z,8.30
2022-12-25T12:49:39.151Z,8.70
2022-12-25T12:52:23.777Z,7.77
2022-12-25T12:55:00.108Z,9.50
2022-12-25T12:57:32.942Z,6.40
2022-12-25T13:00:10.552Z,8.40
2022-12-25T13:03:07.676Z,9.50
2022-12-25T13:05:43.667Z,9.00
2022-12-25T13:08:33.410Z,7.97
2022-12-25T13:11:12.683Z,10.10
2022-12-25T13:13:44.917Z,8.27
2022-12-25T13:16:24.103Z,6.30
2022-12-25T13:18:55.832Z,7.50
2022-12-25T13:21:34.932Z,7.40
2022-12-25T13:24:09.102Z,5.67
2022-12-25T13:26:39.409Z,8.83
2022-12-25T13:29:11.614Z,6.93
2022-12-25T13:31:43.987Z,8.77
2022-12-25T13:34:25.321Z,9.03
2022-12-25T13:36:58.864Z,6.53
2022-12-25T13:39:29.627Z,8.10
2022-12-25T13:42:05.671Z,7.43
2022-12-25T13:44:45.735Z,7.10
2022-12-25T13:47:29.749Z,6.90
2022-12-25T13:50:01.247Z,6.67
2022-12-25T13:52:38.245Z,5.87
2022-12-25T13:55:15.430Z,5.03
2022-12-25T13:57:48.562Z,5.97
2022-12-25T14:00:23.701Z,6.03
2022-12-25T14:02:54.689Z,6.63
2022-12-25T14:05:34.709Z,7.30
2022-12-25T14:08:20.981Z,5.97
2022-12-25T14:10:54.355Z,4.83
2022-12-25T14:13:28.791Z,8.10
2022-12-25T14:15:59.704Z,5.13
2022-12-25T14:18:30.401Z,7.27
2022-12-25T14:21:03.038Z,5.13
2022-12-25T14:23:44.826Z,6.57
2022-12-25T14:26:18.967Z,6.87
2022-12-25T14:28:51.791Z,6.60
2022-12-25T14:31:22.931Z,7.77
2022-12-25T14:33:54.581Z,5.10
2022-12-25T14:36:24.973Z,6.13
2022-12-25T14:39:02.537Z,7.73
2022-12-25T14:41:38.289Z,8.37
2022-12-25T14:44:28.128Z,5.27
2022-12-25T14:47:07.757Z,5.30
2022-12-25T14:49:37.663Z,5.27
2022-12-25T14:52:14.680Z,7.30
2022-12-25T14:54:51.587Z,6.83
2022-12-25T14:57:28.509Z,5.87
2022-12-25T15:00:05.459Z,7.10
2022-12-25T15:02:43.460Z,5.90
2022-12-25T15:05:35.225Z,5.73
2022-12-25T15:08:22.334Z,6.60
2022-12-25T15:11:00.301Z,6.43
2022-12-25T15:13:31.604Z,7.13
2022-12-25T15:16:05.463Z,6.37
2022-12-25T15:18:40.427Z,6.00
2022-12-25T15:21:17.063Z,5.43
2022-12-25T15:23:47.423Z,6.00
2022-12-25T15:26:19.980Z,6.43
2022-12-25T15:28:50.093Z,4.80
2022-12-25T15:31:25.381Z,5.27
2022-12-25T15:33:56.063Z,6.60
2022-12-25T15:36:26.940Z,5.17
2022-12-25T15:38:57.605Z,7.00
2022-12-25T15:41:44.569Z,5.97
2022-12-25T15:44:15.439Z,6.17
2022-12-25T15:46:46.146Z,6.27
2022-12-25T15:49:17.153Z,6.20
2022-12-25T15:51:47.766Z,6.07
2022-12-25T15:54:17.617Z,6.40
2022-12-25T15:56:53.106Z,6.47
2022-12-25T15:59:23.853Z,6.53
2022-12-25T16:01:55.218Z,6.33
2022-12-25T16:04:26.631Z,5.77
2022-12-25T16:06:57.672Z,6.13
2022-12-25T16:09:28.076Z,6.33
2022-12-25T16:12:00.548Z,6.33
2022-12-25T16:14:30.372Z,6.20
2022-12-25T16:17:00.255Z,7.97
2022-12-25T16:19:30.183Z,7.10
2022-12-25T16:22:00.138Z,5.57
2022-12-25T16:24:30.023Z,6.10
2022-12-25T16:27:03.579Z,6.23
2022-12-25T16:29:33.411Z,6.00
2022-12-25T16:32:03.369Z,8.67
2022-12-25T16:34:33.406Z,8.80
2022-12-25T16:37:03.375Z,7.10
2022-12-25T16:39:33.238Z,8.33
2022-12-25T16:42:05.844Z,7.77
2022-12-25T16:44:39.225Z,7.23
2022-12-25T16:47:09.164Z,7.50
2022-12-25T16:49:39.154Z,8.20
2022-12-25T16:52:09.055Z,7.67
2022-12-25T16:54:38.928Z,7.90
2022-12-25T16:57:11.639Z,8.27
2022-12-25T16:59:41.821Z,9.63
2022-12-25T17:02:16.963Z,7.90
2022-12-25T17:04:47.620Z,7.73
2022-12-25T17:07:19.454Z,8.33
2022-12-25T17:09:51.133Z,9.03
2022-12-25T17:12:23.552Z,6.83
2022-12-25T17:14:53.439Z,9.20
2022-12-25T17:17:23.266Z,7.77
2022-12-25T17:19:53.088Z,8.27
2022-12-25T17:22:22.896Z,8.13
2022-12-25T17:24:52.717Z,8.47
2022-12-25T17:27:25.138Z,8.07
2022-12-25T17:29:54.946Z,8.87
2022-12-25T17:32:24.774Z,8.47
2022-12-25T17:34:54.833Z,9.03
2022-12-25T17:37:25.282Z,8.53
2022-12-25T17:39:55.140Z,8.20
2022-12-25T17:42:27.628Z,7.57
2022-12-25T17:44:57.531Z,7.20
2022-12-25T17:47:27.376Z,9.57
2022-12-25T17:49:57.285Z,7.87
2022-12-25T17:52:27.151Z,10.10
2022-12-25T17:54:56.990Z,7.73
2022-12-25T17:57:29.471Z,8.40
2022-12-25T17:59:59.356Z,7.97
2022-12-25T18:02:30.990Z,8.80
2022-12-25T18:05:01.081Z,8.70
2022-12-25T18:07:30.920Z,9.43
2022-12-25T18:10:00.756Z,8.83
2022-12-25T18:12:33.158Z,9.67
2022-12-25T18:15:03.028Z,9.27
2022-12-25T18:17:32.923Z,8.67
2022-12-25T18:20:02.792Z,8.03
2022-12-25T18:22:32.648Z,9.03
2022-12-25T18:25:02.519Z,8.77
2022-12-25T18:27:34.964Z,9.13
2022-12-25T18:30:05.100Z,8.83
2022-12-25T18:32:34.968Z,9.17
2022-12-25T18:35:05.014Z,8.50
2022-12-25T18:37:39.995Z,9.10
2022-12-25T18:40:11.945Z,11.23
2022-12-25T18:42:46.723Z,13.07
2022-12-25T18:45:17.981Z,13.30
2022-12-25T18:47:48.393Z,11.97
2022-12-25T18:50:18.644Z,12.67
2022-12-25T18:52:51.595Z,12.97
2022-12-25T18:55:23.203Z,12.93
2022-12-25T18:57:55.855Z,13.90
2022-12-25T19:00:26.240Z,14.17
2022-12-25T19:02:59.296Z,14.40
2022-12-25T19:05:29.366Z,12.37
2022-12-25T19:07:59.195Z,15.13
2022-12-25T19:10:29.051Z,13.70
2022-12-25T19:13:01.579Z,14.53
2022-12-25T19:15:31.436Z,14.20
2022-12-25T19:18:01.307Z,15.43
2022-12-25T19:20:31.303Z,15.07
2022-12-25T19:23:01.201Z,15.37
2022-12-25T19:25:31.251Z,16.87
2022-12-25T19:28:04.068Z,19.43
2022-12-25T19:30:34.010Z,14.43
2022-12-25T19:33:03.922Z,17.17
2022-12-25T19:35:33.916Z,17.53
2022-12-25T19:38:03.840Z,16.97
2022-12-25T19:40:33.973Z,16.67
2022-12-25T19:43:06.818Z,18.57
2022-12-25T19:45:36.774Z,17.00
2022-12-25T19:48:07.464Z,15.73
2022-12-25T19:50:39.128Z,15.27
2022-12-25T19:53:09.111Z,13.83
2022-12-25T19:55:39.049Z,16.10
2022-12-25T19:58:11.552Z,16.43
2022-12-25T20:00:42.846Z,16.13
2022-12-25T20:03:14.383Z,15.10
2022-12-25T20:05:47.640Z,16.00
2022-12-25T20:08:17.556Z,16.17
2022-12-25T20:10:47.625Z,16.47
2022-12-25T20:13:20.395Z,15.40
2022-12-25T20:15:50.654Z,17.73
2022-12-25T20:18:21.243Z,16.77
2022-12-25T20:20:51.424Z,16.43
2022-12-25T20:23:21.428Z,18.67
2022-12-25T20:25:51.316Z,18.43
2022-12-25T20:28:23.817Z,16.87
2022-12-25T20:30:53.728Z,16.07
2022-12-25T20:33:23.697Z,19.80
2022-12-25T20:35:55.264Z,19.57
2022-12-25T20:38:24.959Z,17.53
2022-12-25T20:41:26.199Z,16.87
2022-12-25T20:43:55.788Z,14.80
2022-12-25T20:46:25.685Z,15.23
2022-12-25T20:48:55.634Z,18.50
2022-12-25T20:51:27.103Z,16.47
2022-12-25T20:53:57.614Z,18.40
2022-12-25T20:56:30.372Z,19.53
2022-12-25T20:59:03.549Z,17.50
2022-12-25T21:01:33.873Z,20.37
2022-12-25T21:04:03.885Z,24.33
2022-12-25T21:06:33.709Z,20.37
2022-12-25T21:09:03.680Z,22.93
2022-12-25T21:11:33.595Z,20.00
2022-12-25T21:14:06.001Z,20.80
2022-12-25T21:16:35.766Z,18.07
2022-12-25T21:19:05.691Z,25.03
2022-12-25T21:21:36.104Z,21.83
2022-12-25T21:24:06.020Z,24.23
2022-12-25T21:26:35.801Z,24.93
2022-12-25T21:29:08.286Z,25.80
2022-12-25T21:31:58.235Z,23.67
2022-12-25T21:34:25.561Z,20.00
2022-12-25T21:36:55.461Z,18.00
2022-12-25T21:39:25.867Z,21.77
2022-12-25T21:41:55.792Z,23.37
2022-12-25T21:44:28.519Z,21.80
2022-12-25T21:46:58.366Z,25.57
2022-12-25T21:49:40.566Z,26.33
2022-12-25T21:52:10.658Z,23.13
2022-12-25T21:54:40.375Z,23.47
2022-12-25T21:57:10.192Z,27.40
2022-12-25T21:59:42.603Z,27.57
2022-12-25T22:02:13.479Z,24.90
2022-12-25T22:04:43.488Z,29.97
2022-12-25T22:07:19.034Z,23.30
2022-12-25T22:09:49.652Z,32.37
2022-12-25T22:12:34.456Z,24.83
2022-12-25T22:15:09.800Z,25.67
2022-12-25T22:17:54.414Z,23.23
2022-12-25T22:20:26.754Z,22.77
2022-12-25T22:22:56.872Z,20.93
2022-12-25T22:25:27.382Z,22.87
2022-12-25T22:27:57.496Z,24.97
2022-12-25T22:30:32.031Z,21.77
2022-12-25T22:33:02.920Z,24.23
2022-12-25T22:35:32.696Z,26.67
2022-12-25T22:38:02.409Z,20.93
2022-12-25T22:40:32.221Z,24.10
2022-12-25T22:43:01.964Z,24.57
2022-12-25T22:45:34.326Z,23.47
2022-12-25T22:48:04.057Z,23.53
2022-12-25T22:50:33.746Z,25.77
2022-12-25T22:53:03.466Z,26.83
2022-12-25T22:55:33.240Z,26.67
2022-12-25T22:58:03.044Z,28.13
2022-12-25T23:00:39.728Z,25.23
2022-12-25T23:03:12.776Z,29.40
2022-12-25T23:05:42.655Z,26.97
2022-12-25T23:08:12.381Z,25.43
2022-12-25T23:10:42.094Z,24.87
2022-12-25T23:13:24.515Z,22.70
2022-12-25T23:15:56.914Z,25.37
2022-12-25T23:18:39.087Z,24.43
2022-12-25T23:21:21.304Z,21.73
2022-12-25T23:24:03.444Z,25.67
2022-12-25T23:26:33.186Z,23.27
2022-12-25T23:29:15.360Z,21.83
2022-12-25T23:31:53.695Z,19.90
2022-12-25T23:34:24.363Z,22.63
2022-12-25T23:36:54.112Z,24.77
2022-12-25T23:39:23.846Z,24.60
2022-12-25T23:41:53.868Z,24.97
2022-12-25T23:44:23.908Z,27.23
2022-12-25T23:46:56.912Z,26.33
2022-12-25T23:49:28.273Z,27.20
2022-12-25T23:51:58.337Z,24.27
2022-12-25T23:54:31.435Z,25.77
2022-12-25T23:57:01.955Z,31.27
2022-12-25T23:59:33.285Z,24.80
